• Join FlightAware (Why Join?)
  • Login
  • US Flag 
03:43PM EDT


 

Airport Tracker/Info


-or-


 

Live Flight TrackerFlight Track Log ✈ OPT732 ✈ 12-May-2013 ✈ KCAK - KPBI

Flight Track Log - Related Links

Times and Time Zones

All times are in EDT time to prevent confusion due to time zone crossing. See the OPT732 flight status page for this flight to view local times or setup timezone preferences in your user account.

Time Position Orientation Groundspeed Altitude Reporting Facility
EDT Latitude Longitude Course Direction KTS MPH feet Rate Location/Type
08:33PM 40.8747 -81.4672 180° South 197 227 3,700  Level Cleveland Center
08:34PM 40.8100 -81.4692 181° South 234 269 6,600 2,880 Climbing Cleveland Center
08:35PM 40.7369 -81.4683 180° South 248 285 9,500 3,180 Climbing Cleveland Center
08:36PM 40.6600 -81.4700 181° South 270 311 13,000 3,000 Climbing Cleveland Center
08:37PM 40.5722 -81.4714 181° South 302 348 15,600 2,400 Climbing Cleveland Center
08:38PM 40.4869 -81.4731 181° South 331 381 17,800 2,280 Climbing Cleveland Center
08:39PM 40.3200 -81.3769 180° South  Level Estimated
08:39PM 40.3806 -81.4717 179° South 360 414 20,200  Level Cleveland Center
08:40PM 40.2764 -81.4731 181° South 382 440 22,700 1,380 Climbing Cleveland Center
08:41PM 40.1597 -81.4658 177° South 397 457 23,000 180 Climbing Cleveland Center
08:42PM 40.0933 -81.4597 176° South 443 510 23,000 480 Level Indianapolis Center
08:43PM 39.9569 -81.4408 174° South 469 540 23,800 1,380 Climbing Indianapolis Center
08:44PM 39.8128 -81.4222 174° South 475 547 25,900 2,040 Climbing Indianapolis Center
08:45PM 39.6819 -81.3994 172° South 474 545 28,000 1,740 Climbing Indianapolis Center
08:46PM 39.5489 -81.3694 170° South 482 555 29,500 1,260 Climbing Indianapolis Center
08:47PM 39.4131 -81.3372 170° South 492 566 30,700 720 Climbing Indianapolis Center
08:48PM 39.2697 -81.3014 169° South 518 596 31,000 540 Climbing Indianapolis Center
08:49PM 39.1222 -81.2661 169° South 533 613 31,900 1,320 Climbing Indianapolis Center
08:50PM 38.9781 -81.2400 172° South 521 600 33,800 1,740 Climbing Indianapolis Center
08:51PM 38.8458 -81.2581 186° South 476 548 35,500 1,380 Climbing Indianapolis Center
08:52PM 38.7131 -81.2833 188° South 473 544 36,700 1,200 Climbing Indianapolis Center
08:53PM 38.5803 -81.3078 188° South 470 541 38,000 1,200 Climbing Indianapolis Center
08:54PM 38.4517 -81.3317 188° South 462 532 39,200 1,200 Climbing Indianapolis Center
08:55PM 38.3014 -81.3600 188° South 452 520 40,500 1,020 Climbing Indianapolis Center
08:56PM 38.1781 -81.3817 188° South 446 513 41,300 660 Climbing Indianapolis Center
08:57PM 38.0539 -81.4047 188° South 448 516 41,900 540 Climbing Indianapolis Center
08:58PM 37.9306 -81.4269 188° South 446 513 42,400 480 Climbing Indianapolis Center
08:59PM 37.8183 -81.4464 188° South 446 513 42,900 240 Climbing Indianapolis Center
09:00PM 37.6728 -81.4717 188° South 451 519 43,000  Climbing Indianapolis Center
09:01PM 37.5503 -81.4944 188° South 458 527 43,000  Level Indianapolis Center
09:02PM 37.4206 -81.5172 188° South 465 535 43,000  Level Indianapolis Center
09:04PM 37.2906 -81.5403 188° South 468 539 43,000  Level Indianapolis Center
09:05PM 37.1589 -81.5633 188° South 472 543 43,000  Level Indianapolis Center
09:05PM 37.1136 -81.5714 188° South 467 537 43,000  Level Atlanta Center
09:06PM 36.9850 -81.5961 189° South 473 544 43,000  Level Atlanta Center
09:07PM 36.8539 -81.6158 187° South 478 550 43,000  Level Atlanta Center
09:08PM 36.7250 -81.6406 189° South 478 550 43,000  Level Atlanta Center
09:09PM 36.5922 -81.6625 188° South 483 556 43,000  Level Atlanta Center
09:10PM 36.4653 -81.6817 187° South 478 550 43,000  Level Atlanta Center
09:11PM 36.3325 -81.7114 190° South 478 550 43,000  Level Atlanta Center
09:12PM 36.2033 -81.7306 187° South 484 557 43,000  Level Atlanta Center
09:13PM 36.0725 -81.7525 188° South 484 557 43,000  Level Atlanta Center
09:14PM 35.9394 -81.7792 189° South 484 557 43,000  Level Atlanta Center
09:15PM 35.8106 -81.7981 187° South 477 549 43,000  Level Atlanta Center
09:16PM 35.6775 -81.8247 189° South 477 549 43,000  Level Atlanta Center
09:17PM 35.5464 -81.8436 187° South 482 555 43,000  Level Atlanta Center
09:18PM 35.4133 -81.8675 188° South 482 555 43,000  Level Atlanta Center
09:19PM 35.2822 -81.8914 188° South 476 548 43,000  Level Atlanta Center
09:20PM 35.1492 -81.9128 187° South 481 554 43,000  Level Atlanta Center
09:21PM 35.0056 -81.9392 189° South 486 559 43,000  Level Atlanta Center
09:22PM 34.8764 -81.9550 186° South 481 554 43,000  Level Atlanta Center
09:23PM 34.7558 -81.9758 188° South 481 554 43,000  Level Atlanta Center
09:24PM 34.6267 -82.0017 189° South 481 554 43,000  Level Atlanta Center
09:25PM 34.4956 -82.0225 187° South 481 554 43,000  Level Atlanta Center
09:26PM 34.3667 -82.0458 188° South 481 554 43,000  Level Atlanta Center
09:27PM 34.2333 -82.0689 188° South 481 554 43,000  Level Atlanta Center
09:28PM 34.1022 -82.0919 188° South 481 554 43,000  Level Atlanta Center
09:29PM 33.9733 -82.1150 188° South 481 554 43,000  Level Atlanta Center
09:30PM 33.8422 -82.1381 188° South 481 554 43,000  Level Atlanta Center
09:31PM 33.7067 -82.1508 184° South 486 559 43,000  Level Atlanta Center
09:32PM 33.5608 -82.1642 184° South 486 559 43,000  Level Atlanta Center
09:33PM 33.4294 -82.1719 183° South 480 552 43,000  Level Atlanta Center
09:34PM 33.3000 -82.1822 184° South 480 552 43,000  Level Atlanta Center
09:35PM 33.1686 -82.1900 183° South 480 552 43,000  Level Atlanta Center
09:37PM 32.9622 -82.2042 183° South 472 543 43,000  Level Jacksonville Center
09:38PM 32.8347 -82.2128 183° South 472 543 43,000  Level Jacksonville Center
09:39PM 32.6908 -82.2236 184° South 472 543 43,000  Level Jacksonville Center
09:40PM 32.5656 -82.2319 183° South 472 543 43,000  Level Jacksonville Center
09:41PM 32.4342 -82.2353 181° South 472 543 43,000  Level Jacksonville Center
09:42PM 32.3194 -82.2461 185° South 466 536 43,000  Level Jacksonville Center
09:43PM 32.1775 -82.2569 184° South 466 536 43,000  Level Jacksonville Center
09:44PM 32.0586 -82.2625 182° South 473 544 43,000  Level Jacksonville Center
09:45PM 31.9125 -82.2733 184° South 478 550 43,000  Level Jacksonville Center
09:46PM 31.7789 -82.2817 183° South 478 550 43,000  Level Jacksonville Center
09:47PM 31.6619 -82.2897 183° South 478 550 43,000  Level Jacksonville Center
09:48PM 31.5181 -82.3028 184° South 478 550 43,000  Level Jacksonville Center
09:49PM 31.3844 -82.3086 182° South 478 550 43,000  Level Jacksonville Center
09:50PM 31.2508 -82.3167 183° South 478 550 43,000  Level Jacksonville Center
09:51PM 31.1192 -82.3247 183° South 478 550 43,000  Level Jacksonville Center
09:52PM 30.9878 -82.3328 183° South 478 550 43,000  Level Jacksonville Center
09:53PM 30.8542 -82.3433 184° South 478 550 43,000  Level Jacksonville Center
09:54PM 30.7225 -82.3514 183° South 478 550 43,000  Level Jacksonville Center
09:55PM 30.5911 -82.3569 182° South 478 550 43,000  Level Jacksonville Center
09:56PM 30.4575 -82.3672 184° South 478 550 43,000  Level Jacksonville Center
09:57PM 30.3239 -82.3681 180° South 478 550 43,000  Level Jacksonville Center
09:58PM 30.2028 -82.3639 178° South 483 556 43,000  Level Jacksonville Center
09:59PM 30.0692 -82.3622 179° South 483 556 43,000  Level Jacksonville Center
10:00PM 29.9231 -82.3533 177° South 483 556 43,000  Level Jacksonville Center
10:01PM 29.7872 -82.3469 178° South 483 556 43,000  Level Jacksonville Center
10:02PM 29.6536 -82.3453 179° South 478 550 43,000  Level Jacksonville Center
10:03PM 29.5181 -82.3436 179° South 478 550 43,000  Level Jacksonville Center
10:04PM 29.3822 -82.3397 179° South 483 556 43,000  Level Jacksonville Center
10:05PM 29.2444 -82.3356 178° South 483 556 43,000  Level Jacksonville Center
10:06PM 29.1086 -82.3342 179° South 483 556 43,000  Level Jacksonville Center
10:07PM 28.9708 -82.3300 178° South 489 563 43,000  Level Jacksonville Center
10:08PM 28.8394 -82.3261 179° South 489 563 43,000  Level Jacksonville Center
10:09PM 28.6994 -82.3175 177° South 494 568 43,000 -240 Level Jacksonville Center
10:10PM 28.5617 -82.2969 173° South 500 575 42,600 -1,200 Descending Jacksonville Center
10:11PM 28.4258 -82.2669 169° South 500 575 40,700 -1,980 Descending Jacksonville Center
10:12PM 28.2458 -82.1258 145° Southeast 502 578 37,700 -2,040 Descending Miami Center
10:13PM 28.1408 -82.0292 141° Southeast 526 605 35,600 -1,380 Descending Miami Center
10:14PM 28.0258 -81.9206 140° Southeast 538 619 35,000 -900 Descending Miami Center
10:15PM 27.9083 -81.8167 142° Southeast 538 619 33,800 -1,500 Descending Miami Center
10:16PM 27.7950 -81.7131 141° Southeast 537 618 32,100 -2,220 Descending Miami Center
10:17PM 27.6675 -81.5953 141° Southeast 537 618 29,500 -2,640 Descending Miami Center
10:18PM 27.5539 -81.4969 142° Southeast 531 611 26,900 -2,520 Descending Miami Center
10:19PM 27.4464 -81.3989 141° Southeast 513 590 24,400 -2,520 Descending Miami Center
10:20PM 27.3508 -81.3158 142° Southeast 500 575 22,000 -2,520 Descending Miami Center
10:21PM 27.2389 -81.2156 141° Southeast 485 558 19,500 -2,400 Descending Miami Center
10:22PM 27.1436 -81.1281 141° Southeast 455 524 17,200 -2,220 Descending Miami Center
10:23PM 27.0500 -81.0453 142° Southeast 441 507 15,000 -2,220 Descending Miami Center
10:24PM 26.9644 -80.9700 142° Southeast 435 501 12,800 -2,400 Descending Miami Center
10:25PM 26.8667 -80.8806 141° Southeast 429 494 10,300 -1,440 Descending Miami Center
10:26PM 26.8386 -80.7608 105° East 383 441 10,000 -180 Descending Miami Center
10:27PM 26.8400 -80.6328 89° East 399 459 10,000  Level Miami Center
10:28PM 26.8386 -80.5211 91° East 404 465 10,000 -360 Level Miami Center
10:29PM 26.8411 -80.4186 88° East 358 412 9,300 -1,440 Descending Miami Center
10:30PM 26.8414 -80.3164 90° East 304 350 7,100 -2,040 Descending Miami Center
10:31PM 26.8308 -80.2300 98° East 285 328 5,300 -1,920 Descending Miami Center
10:32PM 26.8100 -80.1456 105° East 278 320 3,400 -1,320 Descending Miami Center
10:33PM 26.7886 -80.0750 109° East 271 312 2,700 -720 Descending Miami Center
10:35PM 26.6832 -80.0956 209° Southwest  Level Estimated
10:42PM 26.6832 -80.0956 50° Northeast  Level Estimated
10:43PM 26.6832 -80.0956 50° Northeast  Level Estimated
10:44PM 26.6832 -80.0956 50° Northeast  Level Estimated
10:45PM 26.6832 -80.0956 50° Northeast  Level Estimated